sensor_id;sensor_type;location;lat;lon;timestamp;P1;durP1;ratioP1;P2;durP2;ratioP2
61978;SDS011;47938;48.176;16.414;2022-11-20T00:01:07;22.00;;;14.73;;
61978;SDS011;47938;48.176;16.414;2022-11-20T00:03:37;25.40;;;14.88;;
61978;SDS011;47938;48.176;16.414;2022-11-20T00:06:04;24.30;;;14.98;;
61978;SDS011;47938;48.176;16.414;2022-11-20T00:08:39;23.83;;;14.77;;
61978;SDS011;47938;48.176;16.414;2022-11-20T00:11:06;22.27;;;14.20;;
61978;SDS011;47938;48.176;16.414;2022-11-20T00:13:43;22.95;;;14.77;;
61978;SDS011;47938;48.176;16.414;2022-11-20T00:16:09;25.23;;;15.70;;
61978;SDS011;47938;48.176;16.414;2022-11-20T00:18:36;22.98;;;13.93;;
61978;SDS011;47938;48.176;16.414;2022-11-20T00:21:06;26.48;;;15.95;;
61978;SDS011;47938;48.176;16.414;2022-11-20T00:23:35;21.63;;;14.60;;
61978;SDS011;47938;48.176;16.414;2022-11-20T00:26:05;25.52;;;14.93;;
61978;SDS011;47938;48.176;16.414;2022-11-20T00:28:32;24.23;;;14.65;;
61978;SDS011;47938;48.176;16.414;2022-11-20T00:31:04;24.95;;;15.77;;
61978;SDS011;47938;48.176;16.414;2022-11-20T00:33:31;24.67;;;14.63;;
61978;SDS011;47938;48.176;16.414;2022-11-20T00:36:01;26.88;;;15.27;;
61978;SDS011;47938;48.176;16.414;2022-11-20T00:38:31;24.23;;;15.32;;
61978;SDS011;47938;48.176;16.414;2022-11-20T00:40:58;24.55;;;13.82;;
61978;SDS011;47938;48.176;16.414;2022-11-20T00:43:25;24.23;;;15.15;;
61978;SDS011;47938;48.176;16.414;2022-11-20T00:46:01;24.92;;;15.52;;
61978;SDS011;47938;48.176;16.414;2022-11-20T00:48:32;22.23;;;14.60;;
61978;SDS011;47938;48.176;16.414;2022-11-20T00:50:58;23.95;;;15.15;;
61978;SDS011;47938;48.176;16.414;2022-11-20T00:53:24;25.85;;;15.57;;
61978;SDS011;47938;48.176;16.414;2022-11-20T00:55:56;21.55;;;14.35;;
61978;SDS011;47938;48.176;16.414;2022-11-20T00:58:45;23.58;;;14.70;;
61978;SDS011;47938;48.176;16.414;2022-11-20T01:01:16;24.88;;;14.30;;
61978;SDS011;47938;48.176;16.414;2022-11-20T01:03:43;25.08;;;15.05;;
61978;SDS011;47938;48.176;16.414;2022-11-20T01:06:14;22.13;;;14.40;;
61978;SDS011;47938;48.176;16.414;2022-11-20T01:08:42;22.73;;;14.38;;
61978;SDS011;47938;48.176;16.414;2022-11-20T01:11:13;21.05;;;14.30;;
61978;SDS011;47938;48.176;16.414;2022-11-20T01:13:44;25.45;;;15.75;;
61978;SDS011;47938;48.176;16.414;2022-11-20T01:16:17;21.85;;;14.38;;
61978;SDS011;47938;48.176;16.414;2022-11-20T01:18:47;24.38;;;13.73;;
61978;SDS011;47938;48.176;16.414;2022-11-20T01:21:16;21.88;;;14.15;;
61978;SDS011;47938;48.176;16.414;2022-11-20T01:23:44;24.95;;;15.15;;
61978;SDS011;47938;48.176;16.414;2022-11-20T01:26:12;23.27;;;14.93;;
61978;SDS011;47938;48.176;16.414;2022-11-20T01:28:38;24.38;;;14.40;;
61978;SDS011;47938;48.176;16.414;2022-11-20T01:31:15;24.08;;;15.00;;
61978;SDS011;47938;48.176;16.414;2022-11-20T01:33:43;21.27;;;13.93;;
61978;SDS011;47938;48.176;16.414;2022-11-20T01:36:10;24.70;;;14.45;;
61978;SDS011;47938;48.176;16.414;2022-11-20T01:38:36;22.70;;;14.35;;
61978;SDS011;47938;48.176;16.414;2022-11-20T01:41:02;21.17;;;14.48;;
61978;SDS011;47938;48.176;16.414;2022-11-20T01:43:29;22.35;;;14.40;;
61978;SDS011;47938;48.176;16.414;2022-11-20T01:48:44;23.23;;;13.82;;
61978;SDS011;47938;48.176;16.414;2022-11-20T01:51:39;23.60;;;13.68;;
61978;SDS011;47938;48.176;16.414;2022-11-20T01:54:11;24.67;;;14.65;;
61978;SDS011;47938;48.176;16.414;2022-11-20T01:56:45;23.15;;;13.48;;
61978;SDS011;47938;48.176;16.414;2022-11-20T01:59:13;25.15;;;15.18;;
61978;SDS011;47938;48.176;16.414;2022-11-20T02:01:41;24.80;;;14.45;;
61978;SDS011;47938;48.176;16.414;2022-11-20T02:04:07;25.17;;;15.25;;
61978;SDS011;47938;48.176;16.414;2022-11-20T02:06:42;24.45;;;15.30;;
61978;SDS011;47938;48.176;16.414;2022-11-20T02:09:12;23.75;;;15.27;;
61978;SDS011;47938;48.176;16.414;2022-11-20T02:11:38;25.58;;;15.23;;
61978;SDS011;47938;48.176;16.414;2022-11-20T02:14:04;34.65;;;14.82;;
61978;SDS011;47938;48.176;16.414;2022-11-20T02:16:31;21.33;;;14.10;;
61978;SDS011;47938;48.176;16.414;2022-11-20T02:19:01;21.98;;;14.70;;
61978;SDS011;47938;48.176;16.414;2022-11-20T02:21:39;27.45;;;16.27;;
61978;SDS011;47938;48.176;16.414;2022-11-20T02:29:24;24.02;;;15.60;;
61978;SDS011;47938;48.176;16.414;2022-11-20T02:31:53;23.60;;;14.82;;
61978;SDS011;47938;48.176;16.414;2022-11-20T02:34:20;27.52;;;15.60;;
61978;SDS011;47938;48.176;16.414;2022-11-20T02:36:46;25.92;;;16.30;;
61978;SDS011;47938;48.176;16.414;2022-11-20T02:39:13;24.83;;;15.85;;
61978;SDS011;47938;48.176;16.414;2022-11-20T02:41:40;23.08;;;15.48;;
61978;SDS011;47938;48.176;16.414;2022-11-20T02:44:06;24.67;;;15.55;;
61978;SDS011;47938;48.176;16.414;2022-11-20T02:46:31;26.75;;;16.05;;
61978;SDS011;47938;48.176;16.414;2022-11-20T02:48:58;25.52;;;15.98;;
61978;SDS011;47938;48.176;16.414;2022-11-20T02:51:23;28.40;;;16.67;;
61978;SDS011;47938;48.176;16.414;2022-11-20T02:53:49;25.08;;;15.57;;
61978;SDS011;47938;48.176;16.414;2022-11-20T02:56:15;26.13;;;16.60;;
61978;SDS011;47938;48.176;16.414;2022-11-20T02:58:41;29.00;;;16.15;;
61978;SDS011;47938;48.176;16.414;2022-11-20T03:01:06;29.75;;;15.60;;
61978;SDS011;47938;48.176;16.414;2022-11-20T03:03:32;25.98;;;16.42;;
61978;SDS011;47938;48.176;16.414;2022-11-20T03:05:58;24.50;;;15.57;;
61978;SDS011;47938;48.176;16.414;2022-11-20T03:08:24;23.73;;;16.27;;
61978;SDS011;47938;48.176;16.414;2022-11-20T03:10:50;25.60;;;15.38;;
61978;SDS011;47938;48.176;16.414;2022-11-20T03:13:16;24.63;;;15.93;;
61978;SDS011;47938;48.176;16.414;2022-11-20T03:15:42;25.60;;;16.27;;
61978;SDS011;47938;48.176;16.414;2022-11-20T03:18:07;28.10;;;16.60;;
61978;SDS011;47938;48.176;16.414;2022-11-20T03:20:33;29.65;;;16.42;;
61978;SDS011;47938;48.176;16.414;2022-11-20T03:22:59;28.52;;;16.60;;
61978;SDS011;47938;48.176;16.414;2022-11-20T03:25:25;27.50;;;16.67;;
61978;SDS011;47938;48.176;16.414;2022-11-20T03:27:51;24.90;;;15.23;;
61978;SDS011;47938;48.176;16.414;2022-11-20T03:30:16;26.58;;;16.33;;
61978;SDS011;47938;48.176;16.414;2022-11-20T03:32:42;29.02;;;17.08;;
61978;SDS011;47938;48.176;16.414;2022-11-20T03:35:08;29.80;;;17.38;;
61978;SDS011;47938;48.176;16.414;2022-11-20T03:37:34;24.60;;;15.68;;
61978;SDS011;47938;48.176;16.414;2022-11-20T03:40:00;27.63;;;16.77;;
61978;SDS011;47938;48.176;16.414;2022-11-20T03:42:25;25.20;;;16.52;;
61978;SDS011;47938;48.176;16.414;2022-11-20T03:44:51;29.23;;;16.63;;
61978;SDS011;47938;48.176;16.414;2022-11-20T03:47:16;26.05;;;16.73;;
61978;SDS011;47938;48.176;16.414;2022-11-20T03:49:42;23.92;;;14.45;;
61978;SDS011;47938;48.176;16.414;2022-11-20T03:52:07;26.45;;;16.58;;
61978;SDS011;47938;48.176;16.414;2022-11-20T03:54:33;27.55;;;16.58;;
61978;SDS011;47938;48.176;16.414;2022-11-20T03:56:59;27.75;;;16.92;;
61978;SDS011;47938;48.176;16.414;2022-11-20T03:59:24;26.27;;;15.35;;
61978;SDS011;47938;48.176;16.414;2022-11-20T04:01:50;23.55;;;15.73;;
61978;SDS011;47938;48.176;16.414;2022-11-20T04:04:15;26.75;;;15.55;;
61978;SDS011;47938;48.176;16.414;2022-11-20T04:06:41;24.10;;;15.98;;
61978;SDS011;47938;48.176;16.414;2022-11-20T04:09:07;23.58;;;15.40;;
61978;SDS011;47938;48.176;16.414;2022-11-20T04:11:33;24.35;;;15.05;;
61978;SDS011;47938;48.176;16.414;2022-11-20T04:14:01;28.83;;;16.00;;
61978;SDS011;47938;48.176;16.414;2022-11-20T04:16:29;26.20;;;15.85;;
61978;SDS011;47938;48.176;16.414;2022-11-20T04:18:57;22.80;;;15.25;;
61978;SDS011;47938;48.176;16.414;2022-11-20T04:21:24;24.75;;;14.52;;
61978;SDS011;47938;48.176;16.414;2022-11-20T04:23:51;23.20;;;14.77;;
61978;SDS011;47938;48.176;16.414;2022-11-20T04:26:17;22.83;;;14.68;;
61978;SDS011;47938;48.176;16.414;2022-11-20T04:28:43;22.98;;;14.80;;
61978;SDS011;47938;48.176;16.414;2022-11-20T04:31:09;27.10;;;15.25;;
61978;SDS011;47938;48.176;16.414;2022-11-20T04:33:37;26.48;;;15.02;;
61978;SDS011;47938;48.176;16.414;2022-11-20T04:36:04;24.55;;;15.32;;
61978;SDS011;47938;48.176;16.414;2022-11-20T04:38:31;26.25;;;14.95;;
61978;SDS011;47938;48.176;16.414;2022-11-20T04:40:58;27.75;;;16.20;;
61978;SDS011;47938;48.176;16.414;2022-11-20T04:43:28;29.08;;;15.90;;
61978;SDS011;47938;48.176;16.414;2022-11-20T04:45:54;32.50;;;17.08;;
61978;SDS011;47938;48.176;16.414;2022-11-20T04:48:21;31.60;;;15.52;;
61978;SDS011;47938;48.176;16.414;2022-11-20T04:50:46;29.50;;;15.95;;
61978;SDS011;47938;48.176;16.414;2022-11-20T04:53:13;26.98;;;16.25;;
61978;SDS011;47938;48.176;16.414;2022-11-20T04:55:38;25.05;;;16.23;;
61978;SDS011;47938;48.176;16.414;2022-11-20T04:58:04;28.63;;;16.38;;
61978;SDS011;47938;48.176;16.414;2022-11-20T05:00:30;24.92;;;15.48;;
61978;SDS011;47938;48.176;16.414;2022-11-20T05:02:55;25.48;;;15.80;;
61978;SDS011;47938;48.176;16.414;2022-11-20T05:05:21;29.48;;;16.70;;
61978;SDS011;47938;48.176;16.414;2022-11-20T05:07:46;24.27;;;15.38;;
61978;SDS011;47938;48.176;16.414;2022-11-20T05:10:12;25.83;;;15.68;;
61978;SDS011;47938;48.176;16.414;2022-11-20T05:12:38;25.02;;;16.13;;
61978;SDS011;47938;48.176;16.414;2022-11-20T05:15:03;28.27;;;16.55;;
61978;SDS011;47938;48.176;16.414;2022-11-20T05:17:29;26.05;;;14.88;;
61978;SDS011;47938;48.176;16.414;2022-11-20T05:19:55;26.98;;;17.20;;
61978;SDS011;47938;48.176;16.414;2022-11-20T05:22:20;25.67;;;15.73;;
61978;SDS011;47938;48.176;16.414;2022-11-20T05:24:46;27.77;;;16.45;;
61978;SDS011;47938;48.176;16.414;2022-11-20T05:27:12;27.38;;;17.27;;
61978;SDS011;47938;48.176;16.414;2022-11-20T05:29:37;24.45;;;15.55;;
61978;SDS011;47938;48.176;16.414;2022-11-20T05:32:03;27.23;;;16.45;;
61978;SDS011;47938;48.176;16.414;2022-11-20T05:34:29;26.70;;;17.58;;
61978;SDS011;47938;48.176;16.414;2022-11-20T05:36:54;29.00;;;17.02;;
61978;SDS011;47938;48.176;16.414;2022-11-20T05:39:20;26.65;;;16.40;;
61978;SDS011;47938;48.176;16.414;2022-11-20T05:41:46;25.05;;;16.55;;
61978;SDS011;47938;48.176;16.414;2022-11-20T05:44:11;28.63;;;17.23;;
61978;SDS011;47938;48.176;16.414;2022-11-20T05:46:37;26.75;;;16.38;;
61978;SDS011;47938;48.176;16.414;2022-11-20T05:49:03;24.65;;;15.98;;
61978;SDS011;47938;48.176;16.414;2022-11-20T05:51:29;26.48;;;16.08;;
61978;SDS011;47938;48.176;16.414;2022-11-20T05:53:57;26.52;;;16.23;;
61978;SDS011;47938;48.176;16.414;2022-11-20T05:56:23;31.02;;;17.27;;
61978;SDS011;47938;48.176;16.414;2022-11-20T05:58:49;28.80;;;16.58;;
61978;SDS011;47938;48.176;16.414;2022-11-20T06:01:19;26.88;;;15.80;;
61978;SDS011;47938;48.176;16.414;2022-11-20T06:03:47;28.27;;;16.52;;
61978;SDS011;47938;48.176;16.414;2022-11-20T06:06:13;24.77;;;15.93;;
61978;SDS011;47938;48.176;16.414;2022-11-20T06:08:40;26.05;;;16.02;;
61978;SDS011;47938;48.176;16.414;2022-11-20T06:11:06;29.20;;;15.90;;
61978;SDS011;47938;48.176;16.414;2022-11-20T06:13:33;31.98;;;16.48;;
61978;SDS011;47938;48.176;16.414;2022-11-20T06:15:59;27.25;;;16.75;;
61978;SDS011;47938;48.176;16.414;2022-11-20T06:18:26;28.10;;;17.17;;
61978;SDS011;47938;48.176;16.414;2022-11-20T06:20:58;29.00;;;17.90;;
61978;SDS011;47938;48.176;16.414;2022-11-20T06:26:01;25.55;;;16.15;;
61978;SDS011;47938;48.176;16.414;2022-11-20T06:28:28;29.02;;;16.27;;
61978;SDS011;47938;48.176;16.414;2022-11-20T06:30:54;28.67;;;15.45;;
61978;SDS011;47938;48.176;16.414;2022-11-20T06:33:19;31.05;;;17.20;;
61978;SDS011;47938;48.176;16.414;2022-11-20T06:35:45;29.15;;;17.38;;
61978;SDS011;47938;48.176;16.414;2022-11-20T06:38:10;30.70;;;17.08;;
61978;SDS011;47938;48.176;16.414;2022-11-20T06:40:39;27.17;;;17.10;;
61978;SDS011;47938;48.176;16.414;2022-11-20T06:43:05;29.00;;;17.08;;
61978;SDS011;47938;48.176;16.414;2022-11-20T06:45:31;30.27;;;17.27;;
61978;SDS011;47938;48.176;16.414;2022-11-20T06:47:59;26.40;;;17.20;;
61978;SDS011;47938;48.176;16.414;2022-11-20T06:50:25;27.42;;;16.95;;
61978;SDS011;47938;48.176;16.414;2022-11-20T06:52:50;26.90;;;16.20;;
61978;SDS011;47938;48.176;16.414;2022-11-20T06:55:16;33.05;;;17.85;;
61978;SDS011;47938;48.176;16.414;2022-11-20T06:57:42;30.85;;;18.08;;
61978;SDS011;47938;48.176;16.414;2022-11-20T07:00:07;29.48;;;17.98;;
61978;SDS011;47938;48.176;16.414;2022-11-20T07:02:33;28.63;;;17.75;;
61978;SDS011;47938;48.176;16.414;2022-11-20T07:04:59;36.10;;;18.10;;
61978;SDS011;47938;48.176;16.414;2022-11-20T07:07:24;28.85;;;16.48;;
61978;SDS011;47938;48.176;16.414;2022-11-20T07:09:50;29.00;;;16.80;;
61978;SDS011;47938;48.176;16.414;2022-11-20T07:12:16;27.27;;;16.55;;
61978;SDS011;47938;48.176;16.414;2022-11-20T07:14:41;28.90;;;16.05;;
61978;SDS011;47938;48.176;16.414;2022-11-20T07:17:07;27.88;;;17.10;;
61978;SDS011;47938;48.176;16.414;2022-11-20T07:19:32;27.65;;;16.88;;
61978;SDS011;47938;48.176;16.414;2022-11-20T07:21:58;31.73;;;17.52;;
61978;SDS011;47938;48.176;16.414;2022-11-20T07:24:24;28.60;;;17.15;;
61978;SDS011;47938;48.176;16.414;2022-11-20T07:26:49;27.08;;;16.38;;
61978;SDS011;47938;48.176;16.414;2022-11-20T07:29:15;29.40;;;17.13;;
61978;SDS011;47938;48.176;16.414;2022-11-20T07:31:41;33.35;;;18.40;;
61978;SDS011;47938;48.176;16.414;2022-11-20T07:34:06;28.23;;;16.73;;
61978;SDS011;47938;48.176;16.414;2022-11-20T07:36:32;33.10;;;18.88;;
61978;SDS011;47938;48.176;16.414;2022-11-20T07:38:58;32.53;;;18.65;;
61978;SDS011;47938;48.176;16.414;2022-11-20T07:41:24;27.75;;;17.33;;
61978;SDS011;47938;48.176;16.414;2022-11-20T07:43:50;32.60;;;18.55;;
61978;SDS011;47938;48.176;16.414;2022-11-20T07:46:16;30.88;;;18.38;;
61978;SDS011;47938;48.176;16.414;2022-11-20T07:48:41;34.45;;;19.38;;
61978;SDS011;47938;48.176;16.414;2022-11-20T07:51:07;29.45;;;18.42;;
61978;SDS011;47938;48.176;16.414;2022-11-20T07:53:32;28.38;;;18.08;;
61978;SDS011;47938;48.176;16.414;2022-11-20T07:56:01;30.40;;;18.55;;
61978;SDS011;47938;48.176;16.414;2022-11-20T07:58:30;36.17;;;20.25;;
61978;SDS011;47938;48.176;16.414;2022-11-20T08:00:57;31.08;;;19.10;;
61978;SDS011;47938;48.176;16.414;2022-11-20T08:03:22;31.58;;;18.23;;
61978;SDS011;47938;48.176;16.414;2022-11-20T08:05:48;30.80;;;18.58;;
61978;SDS011;47938;48.176;16.414;2022-11-20T08:08:13;29.80;;;17.73;;
61978;SDS011;47938;48.176;16.414;2022-11-20T08:10:39;30.65;;;18.77;;
61978;SDS011;47938;48.176;16.414;2022-11-20T08:13:04;33.70;;;19.25;;
61978;SDS011;47938;48.176;16.414;2022-11-20T08:15:30;32.42;;;18.52;;
61978;SDS011;47938;48.176;16.414;2022-11-20T08:18:03;30.20;;;18.83;;
61978;SDS011;47938;48.176;16.414;2022-11-20T08:20:30;29.90;;;19.17;;
61978;SDS011;47938;48.176;16.414;2022-11-20T08:23:03;29.45;;;18.30;;
61978;SDS011;47938;48.176;16.414;2022-11-20T08:25:30;33.08;;;19.80;;
61978;SDS011;47938;48.176;16.414;2022-11-20T08:28:00;31.48;;;19.95;;
61978;SDS011;47938;48.176;16.414;2022-11-20T08:30:27;32.55;;;18.67;;
61978;SDS011;47938;48.176;16.414;2022-11-20T08:32:53;32.10;;;19.42;;
61978;SDS011;47938;48.176;16.414;2022-11-20T08:35:20;32.42;;;19.27;;
61978;SDS011;47938;48.176;16.414;2022-11-20T08:37:46;34.30;;;18.95;;
61978;SDS011;47938;48.176;16.414;2022-11-20T08:40:12;30.73;;;19.60;;
61978;SDS011;47938;48.176;16.414;2022-11-20T08:42:45;30.20;;;18.38;;
61978;SDS011;47938;48.176;16.414;2022-11-20T08:45:14;30.75;;;18.75;;
61978;SDS011;47938;48.176;16.414;2022-11-20T08:47:41;34.70;;;19.42;;
61978;SDS011;47938;48.176;16.414;2022-11-20T08:50:08;28.50;;;18.30;;
61978;SDS011;47938;48.176;16.414;2022-11-20T08:52:38;29.95;;;18.52;;
61978;SDS011;47938;48.176;16.414;2022-11-20T08:55:04;33.10;;;19.30;;
61978;SDS011;47938;48.176;16.414;2022-11-20T08:57:37;35.03;;;20.05;;
61978;SDS011;47938;48.176;16.414;2022-11-20T09:02:30;30.98;;;18.42;;
61978;SDS011;47938;48.176;16.414;2022-11-20T09:04:55;32.70;;;18.10;;
61978;SDS011;47938;48.176;16.414;2022-11-20T09:07:21;29.98;;;18.38;;
61978;SDS011;47938;48.176;16.414;2022-11-20T09:09:47;35.15;;;19.98;;
61978;SDS011;47938;48.176;16.414;2022-11-20T09:12:12;30.48;;;18.55;;
61978;SDS011;47938;48.176;16.414;2022-11-20T09:14:38;32.60;;;18.83;;
61978;SDS011;47938;48.176;16.414;2022-11-20T09:17:04;27.92;;;17.80;;
61978;SDS011;47938;48.176;16.414;2022-11-20T09:19:29;28.85;;;18.60;;
61978;SDS011;47938;48.176;16.414;2022-11-20T09:21:55;33.95;;;19.75;;
61978;SDS011;47938;48.176;16.414;2022-11-20T09:24:20;30.40;;;19.35;;
61978;SDS011;47938;48.176;16.414;2022-11-20T09:26:46;36.50;;;19.77;;
61978;SDS011;47938;48.176;16.414;2022-11-20T09:29:12;33.13;;;19.17;;
61978;SDS011;47938;48.176;16.414;2022-11-20T09:31:37;30.75;;;19.58;;
61978;SDS011;47938;48.176;16.414;2022-11-20T09:34:03;31.73;;;19.48;;
61978;SDS011;47938;48.176;16.414;2022-11-20T09:36:29;31.02;;;19.45;;
61978;SDS011;47938;48.176;16.414;2022-11-20T09:38:54;30.83;;;19.58;;
61978;SDS011;47938;48.176;16.414;2022-11-20T09:44:07;31.35;;;18.65;;
61978;SDS011;47938;48.176;16.414;2022-11-20T09:55:11;30.20;;;18.88;;
61978;SDS011;47938;48.176;16.414;2022-11-20T09:57:40;30.85;;;19.35;;
61978;SDS011;47938;48.176;16.414;2022-11-20T10:00:10;32.92;;;19.60;;
61978;SDS011;47938;48.176;16.414;2022-11-20T10:02:48;32.55;;;20.00;;
61978;SDS011;47938;48.176;16.414;2022-11-20T10:10:52;32.25;;;18.98;;
61978;SDS011;47938;48.176;16.414;2022-11-20T10:16:26;30.25;;;19.05;;
61978;SDS011;47938;48.176;16.414;2022-11-20T10:30:07;27.65;;;18.17;;
61978;SDS011;47938;48.176;16.414;2022-11-20T10:32:36;29.73;;;19.55;;
61978;SDS011;47938;48.176;16.414;2022-11-20T10:35:07;33.13;;;19.30;;
61978;SDS011;47938;48.176;16.414;2022-11-20T10:37:44;30.25;;;19.00;;
61978;SDS011;47938;48.176;16.414;2022-11-20T10:42:56;32.92;;;18.70;;
61978;SDS011;47938;48.176;16.414;2022-11-20T10:47:52;29.38;;;19.60;;
61978;SDS011;47938;48.176;16.414;2022-11-20T10:50:31;33.30;;;20.98;;
61978;SDS011;47938;48.176;16.414;2022-11-20T10:53:02;32.13;;;19.95;;
61978;SDS011;47938;48.176;16.414;2022-11-20T10:55:45;29.52;;;19.83;;
61978;SDS011;47938;48.176;16.414;2022-11-20T10:58:22;34.70;;;21.15;;
61978;SDS011;47938;48.176;16.414;2022-11-20T11:01:18;31.95;;;20.50;;
61978;SDS011;47938;48.176;16.414;2022-11-20T11:03:45;36.17;;;20.23;;
61978;SDS011;47938;48.176;16.414;2022-11-20T11:08:53;36.25;;;21.30;;
61978;SDS011;47938;48.176;16.414;2022-11-20T11:11:23;31.63;;;20.10;;
61978;SDS011;47938;48.176;16.414;2022-11-20T11:13:51;29.17;;;18.92;;
61978;SDS011;47938;48.176;16.414;2022-11-20T11:16:24;32.10;;;21.52;;
61978;SDS011;47938;48.176;16.414;2022-11-20T11:18:51;34.63;;;20.85;;
61978;SDS011;47938;48.176;16.414;2022-11-20T11:21:27;31.30;;;20.25;;
61978;SDS011;47938;48.176;16.414;2022-11-20T11:24:00;32.90;;;20.25;;
61978;SDS011;47938;48.176;16.414;2022-11-20T11:26:28;29.52;;;19.63;;
61978;SDS011;47938;48.176;16.414;2022-11-20T11:28:55;33.15;;;20.23;;
61978;SDS011;47938;48.176;16.414;2022-11-20T11:31:26;33.92;;;21.23;;
61978;SDS011;47938;48.176;16.414;2022-11-20T11:34:03;33.30;;;21.65;;
61978;SDS011;47938;48.176;16.414;2022-11-20T11:36:39;30.33;;;19.52;;
61978;SDS011;47938;48.176;16.414;2022-11-20T11:39:08;29.00;;;19.50;;
61978;SDS011;47938;48.176;16.414;2022-11-20T11:41:38;31.50;;;19.80;;
61978;SDS011;47938;48.176;16.414;2022-11-20T11:46:54;30.02;;;19.48;;
61978;SDS011;47938;48.176;16.414;2022-11-20T11:49:21;30.70;;;19.85;;
61978;SDS011;47938;48.176;16.414;2022-11-20T11:51:52;33.67;;;19.50;;
61978;SDS011;47938;48.176;16.414;2022-11-20T11:54:26;30.63;;;20.55;;
61978;SDS011;47938;48.176;16.414;2022-11-20T11:57:10;29.92;;;19.20;;
61978;SDS011;47938;48.176;16.414;2022-11-20T12:00:01;31.63;;;20.08;;
61978;SDS011;47938;48.176;16.414;2022-11-20T12:07:57;29.25;;;20.25;;
61978;SDS011;47938;48.176;16.414;2022-11-20T12:16:02;31.52;;;21.08;;
61978;SDS011;47938;48.176;16.414;2022-11-20T12:18:29;30.63;;;18.98;;
61978;SDS011;47938;48.176;16.414;2022-11-20T12:21:03;31.35;;;20.23;;
61978;SDS011;47938;48.176;16.414;2022-11-20T12:23:55;31.33;;;19.42;;
61978;SDS011;47938;48.176;16.414;2022-11-20T12:29:05;27.77;;;19.17;;
61978;SDS011;47938;48.176;16.414;2022-11-20T12:31:45;29.23;;;19.33;;
61978;SDS011;47938;48.176;16.414;2022-11-20T12:56:33;26.70;;;18.77;;
61978;SDS011;47938;48.176;16.414;2022-11-20T13:01:55;30.10;;;20.02;;
61978;SDS011;47938;48.176;16.414;2022-11-20T13:07:20;30.67;;;19.92;;
61978;SDS011;47938;48.176;16.414;2022-11-20T13:09:48;29.45;;;19.50;;
61978;SDS011;47938;48.176;16.414;2022-11-20T13:12:17;27.55;;;19.08;;
61978;SDS011;47938;48.176;16.414;2022-11-20T13:17:53;28.17;;;18.50;;
61978;SDS011;47938;48.176;16.414;2022-11-20T13:20:24;27.20;;;18.83;;
61978;SDS011;47938;48.176;16.414;2022-11-20T13:22:54;29.65;;;19.27;;
61978;SDS011;47938;48.176;16.414;2022-11-20T13:28:00;28.17;;;18.65;;
61978;SDS011;47938;48.176;16.414;2022-11-20T13:30:30;26.70;;;18.42;;
61978;SDS011;47938;48.176;16.414;2022-11-20T13:33:43;28.25;;;19.33;;
61978;SDS011;47938;48.176;16.414;2022-11-20T13:36:04;27.10;;;18.35;;
61978;SDS011;47938;48.176;16.414;2022-11-20T13:38:51;32.72;;;20.92;;
61978;SDS011;47938;48.176;16.414;2022-11-20T13:41:26;36.10;;;19.58;;
61978;SDS011;47938;48.176;16.414;2022-11-20T13:43:58;27.67;;;19.13;;
61978;SDS011;47938;48.176;16.414;2022-11-20T13:46:44;27.63;;;18.23;;
61978;SDS011;47938;48.176;16.414;2022-11-20T13:49:24;29.33;;;19.42;;
61978;SDS011;47938;48.176;16.414;2022-11-20T13:51:53;30.88;;;17.83;;
61978;SDS011;47938;48.176;16.414;2022-11-20T14:00:03;42.90;;;26.13;;
61978;SDS011;47938;48.176;16.414;2022-11-20T14:02:36;31.55;;;21.52;;
61978;SDS011;47938;48.176;16.414;2022-11-20T14:05:02;29.98;;;19.83;;
61978;SDS011;47938;48.176;16.414;2022-11-20T14:07:37;27.70;;;18.73;;
61978;SDS011;47938;48.176;16.414;2022-11-20T14:10:19;29.92;;;19.10;;
61978;SDS011;47938;48.176;16.414;2022-11-20T14:12:46;30.55;;;19.30;;
61978;SDS011;47938;48.176;16.414;2022-11-20T14:15:23;28.88;;;18.77;;
61978;SDS011;47938;48.176;16.414;2022-11-20T14:17:59;29.70;;;19.50;;
61978;SDS011;47938;48.176;16.414;2022-11-20T14:20:36;28.42;;;18.83;;
61978;SDS011;47938;48.176;16.414;2022-11-20T14:23:03;31.17;;;19.23;;
61978;SDS011;47938;48.176;16.414;2022-11-20T14:25:29;28.90;;;18.38;;
61978;SDS011;47938;48.176;16.414;2022-11-20T14:27:59;31.77;;;18.88;;
61978;SDS011;47938;48.176;16.414;2022-11-20T14:30:28;27.57;;;19.17;;
61978;SDS011;47938;48.176;16.414;2022-11-20T14:33:01;29.35;;;19.50;;
61978;SDS011;47938;48.176;16.414;2022-11-20T14:35:31;30.27;;;20.08;;
61978;SDS011;47938;48.176;16.414;2022-11-20T14:40:28;40.55;;;21.88;;
61978;SDS011;47938;48.176;16.414;2022-11-20T14:42:59;30.23;;;18.75;;
61978;SDS011;47938;48.176;16.414;2022-11-20T14:45:25;29.13;;;19.83;;
61978;SDS011;47938;48.176;16.414;2022-11-20T14:47:52;29.33;;;19.67;;
61978;SDS011;47938;48.176;16.414;2022-11-20T14:52:58;33.63;;;19.42;;
61978;SDS011;47938;48.176;16.414;2022-11-20T14:55:29;27.15;;;18.45;;
61978;SDS011;47938;48.176;16.414;2022-11-20T14:58:04;28.58;;;18.55;;
61978;SDS011;47938;48.176;16.414;2022-11-20T15:00:33;26.98;;;18.42;;
61978;SDS011;47938;48.176;16.414;2022-11-20T15:03:00;37.80;;;22.27;;
61978;SDS011;47938;48.176;16.414;2022-11-20T15:05:43;39.15;;;20.27;;
61978;SDS011;47938;48.176;16.414;2022-11-20T15:08:11;32.88;;;20.80;;
61978;SDS011;47938;48.176;16.414;2022-11-20T15:10:38;32.05;;;20.70;;
61978;SDS011;47938;48.176;16.414;2022-11-20T15:13:11;30.75;;;19.27;;
61978;SDS011;47938;48.176;16.414;2022-11-20T15:15:47;31.83;;;20.63;;
61978;SDS011;47938;48.176;16.414;2022-11-20T15:18:21;31.70;;;19.58;;
61978;SDS011;47938;48.176;16.414;2022-11-20T15:20:52;34.35;;;21.50;;
61978;SDS011;47938;48.176;16.414;2022-11-20T15:25:51;37.75;;;24.00;;
61978;SDS011;47938;48.176;16.414;2022-11-20T15:28:20;39.22;;;21.77;;
61978;SDS011;47938;48.176;16.414;2022-11-20T15:30:50;38.75;;;20.65;;
61978;SDS011;47938;48.176;16.414;2022-11-20T15:33:17;34.50;;;21.75;;
61978;SDS011;47938;48.176;16.414;2022-11-20T15:35:43;34.53;;;21.52;;
61978;SDS011;47938;48.176;16.414;2022-11-20T15:38:09;35.95;;;22.63;;
61978;SDS011;47938;48.176;16.414;2022-11-20T15:40:35;32.92;;;21.27;;
61978;SDS011;47938;48.176;16.414;2022-11-20T15:43:01;34.67;;;22.83;;
61978;SDS011;47938;48.176;16.414;2022-11-20T15:48:16;37.27;;;22.10;;
61978;SDS011;47938;48.176;16.414;2022-11-20T15:51:06;39.47;;;22.70;;
61978;SDS011;47938;48.176;16.414;2022-11-20T15:53:39;40.38;;;23.50;;
61978;SDS011;47938;48.176;16.414;2022-11-20T15:56:09;39.35;;;24.80;;
61978;SDS011;47938;48.176;16.414;2022-11-20T15:58:37;39.67;;;23.95;;
61978;SDS011;47938;48.176;16.414;2022-11-20T16:01:04;39.45;;;23.02;;
61978;SDS011;47938;48.176;16.414;2022-11-20T16:03:30;40.25;;;23.80;;
61978;SDS011;47938;48.176;16.414;2022-11-20T16:05:55;42.05;;;24.10;;
61978;SDS011;47938;48.176;16.414;2022-11-20T16:08:21;40.78;;;23.88;;
61978;SDS011;47938;48.176;16.414;2022-11-20T16:10:47;35.10;;;21.85;;
61978;SDS011;47938;48.176;16.414;2022-11-20T16:13:14;39.80;;;24.80;;
61978;SDS011;47938;48.176;16.414;2022-11-20T16:15:41;38.55;;;22.77;;